createdAt,value
2022-09-06T00:02:56.141Z,45.2
2022-09-06T00:08:14.385Z,45.3
2022-09-06T00:13:33.158Z,46.4
2022-09-06T00:18:51.922Z,45.3
2022-09-06T00:24:10.136Z,45.9
2022-09-06T00:29:28.627Z,45.8
2022-09-06T00:34:47.110Z,45.9
2022-09-06T00:40:05.616Z,44.9
2022-09-06T00:45:23.898Z,45.9
2022-09-06T00:50:42.658Z,45.9
2022-09-06T00:56:01.426Z,45.9
2022-09-06T01:01:20.404Z,44.7
2022-09-06T01:06:38.781Z,45.4
2022-09-06T01:11:56.700Z,45.2
2022-09-06T01:17:14.899Z,45.6
2022-09-06T01:22:33.381Z,45.1
2022-09-06T01:27:51.861Z,44.7
2022-09-06T01:33:10.629Z,44.8
2022-09-06T01:38:29.263Z,45.4
2022-09-06T01:43:48.019Z,45.3
2022-09-06T01:49:06.786Z,44.7
2022-09-06T01:54:24.975Z,44.5
2022-09-06T01:59:43.750Z,44.4
2022-09-06T02:05:02.227Z,44.8
2022-09-06T02:10:20.137Z,44.9
2022-09-06T02:15:38.621Z,45.4
2022-09-06T02:20:57.103Z,44.4
2022-09-06T02:26:15.304Z,44.2
2022-09-06T02:31:34.074Z,43.6
2022-09-06T02:36:52.260Z,43.7
2022-09-06T02:42:10.741Z,45.1
2022-09-06T02:47:29.232Z,43.5
2022-09-06T02:52:47.698Z,44.5
2022-09-06T02:58:05.907Z,44
2022-09-06T03:03:24.109Z,43.4
2022-09-06T03:08:42.872Z,44
2022-09-06T03:14:01.350Z,43.3
2022-09-06T03:19:19.552Z,44.2
2022-09-06T03:24:38.034Z,43.1
2022-09-06T03:29:56.530Z,43.2
2022-09-06T03:35:15.295Z,44.1
2022-09-06T03:40:33.489Z,43.9
2022-09-06T03:45:52.722Z,42.9
2022-09-06T03:51:11.483Z,43.6
2022-09-06T03:56:29.980Z,43.7
2022-09-06T04:01:48.456Z,43.6
2022-09-06T04:07:06.946Z,44.5
2022-09-06T04:12:25.708Z,44.4
2022-09-06T04:17:43.638Z,42.8
2022-09-06T04:23:02.403Z,43.4
2022-09-06T04:28:20.882Z,43.7
2022-09-06T04:33:39.646Z,43.9
2022-09-06T04:38:58.145Z,43
2022-09-06T04:44:16.901Z,43.5
2022-09-06T04:49:35.103Z,42.9
2022-09-06T04:54:53.594Z,43.5
2022-09-06T05:00:12.081Z,44.4
2022-09-06T05:05:30.847Z,42.8
2022-09-06T05:10:49.052Z,44.4
2022-09-06T05:16:07.505Z,43.2
2022-09-06T05:21:25.748Z,43
2022-09-06T05:26:44.465Z,43.6
2022-09-06T05:32:03.328Z,43.8
2022-09-06T05:37:22.068Z,44.3
2022-09-06T05:42:40.549Z,43.9
2022-09-06T05:47:59.042Z,44.6
2022-09-06T05:53:16.939Z,44.7
2022-09-06T05:58:35.450Z,44.7
2022-09-06T06:03:53.904Z,44.2
2022-09-06T06:09:12.661Z,44.4
2022-09-06T06:14:30.919Z,43.9
2022-09-06T06:19:34.068Z,44.2
2022-09-06T06:24:52.254Z,44.7
2022-09-06T06:30:17.826Z,44.4
2022-09-06T06:35:40.893Z,44.2
2022-09-06T06:41:07.382Z,41.1
2022-09-06T06:46:25.840Z,41.2
2022-09-06T06:51:44.036Z,42.8
2022-09-06T06:57:02.511Z,42.1
2022-09-06T07:02:20.932Z,42.2
2022-09-06T07:07:42.167Z,42.7
2022-09-06T07:13:00.349Z,42.5
2022-09-06T07:18:19.072Z,42.7
2022-09-06T07:24:09.183Z,41.2
2022-09-06T07:29:28.225Z,42.4
2022-09-06T07:34:46.689Z,44
2022-09-06T07:40:05.441Z,42.3
2022-09-06T07:45:24.232Z,42.8
2022-09-06T07:56:04.267Z,43.1
2022-09-06T08:01:22.868Z,43.6
2022-09-06T08:07:41.083Z,43.5
2022-09-06T08:12:58.997Z,44.3
2022-09-06T08:18:17.200Z,43.2
2022-09-06T08:23:35.652Z,44.1
2022-09-06T08:28:53.858Z,43.6
2022-09-06T08:34:12.624Z,44.3
2022-09-06T08:39:30.987Z,43.5
2022-09-06T08:44:58.959Z,44.4
2022-09-06T08:50:17.549Z,43.4
2022-09-06T08:55:36.275Z,42.5
2022-09-06T09:00:55.040Z,42.8
2022-09-06T09:06:13.261Z,42.7
2022-09-06T09:11:31.733Z,43.1
2022-09-06T09:16:50.487Z,43.5
2022-09-06T09:22:08.995Z,42.2
2022-09-06T09:27:27.467Z,42.3
2022-09-06T09:32:45.652Z,42.3
2022-09-06T09:38:12.500Z,41.9
2022-09-06T09:43:30.958Z,43
2022-09-06T09:48:49.442Z,42.6
2022-09-06T09:54:08.212Z,42.4
2022-09-06T09:59:26.688Z,43.5
2022-09-06T10:04:46.552Z,42
2022-09-06T10:10:05.035Z,42.2
2022-09-06T10:15:23.786Z,41.1
2022-09-06T10:20:47.804Z,41.5
2022-09-06T10:26:06.538Z,41.1
2022-09-06T10:31:24.843Z,42
2022-09-06T10:36:42.981Z,41.9
2022-09-06T10:42:01.749Z,40.5
2022-09-06T10:47:20.220Z,41.3
2022-09-06T10:52:38.963Z,42.3
2022-09-06T10:58:28.528Z,41.3
2022-09-06T11:03:54.550Z,41
2022-09-06T11:09:15.266Z,40.6
2022-09-06T11:14:33.184Z,40.9
2022-09-06T11:19:51.995Z,41.9
2022-09-06T11:25:10.431Z,42.7
2022-09-06T11:30:29.183Z,41.4
2022-09-06T11:35:47.946Z,39.9
2022-09-06T11:41:12.550Z,35.5
2022-09-06T11:46:30.572Z,36.4
2022-09-06T11:51:33.412Z,38.5
2022-09-06T11:56:52.175Z,37.8
2022-09-06T12:02:10.367Z,39.4
2022-09-06T12:07:29.122Z,38.1
2022-09-06T12:12:47.876Z,37.6
2022-09-06T12:18:06.326Z,37.3
2022-09-06T12:23:24.787Z,39.3
2022-09-06T12:28:42.705Z,39.8
2022-09-06T12:34:01.190Z,38.4
2022-09-06T12:39:19.948Z,36.7
2022-09-06T12:44:38.423Z,38.1
2022-09-06T12:49:57.307Z,37.5
2022-09-06T12:55:16.074Z,38.6
2022-09-06T13:00:37.790Z,39.3
2022-09-06T13:05:56.574Z,40
2022-09-06T13:11:15.034Z,40.4
2022-09-06T13:16:33.788Z,40.4
2022-09-06T13:21:52.554Z,40
2022-09-06T13:27:10.742Z,40.2
2022-09-06T13:32:29.234Z,38.8
2022-09-06T13:37:47.710Z,39.5
2022-09-06T13:43:05.922Z,39.2
2022-09-06T13:48:29.674Z,39.8
2022-09-06T13:53:47.884Z,40.2
2022-09-06T13:59:06.369Z,37.9
2022-09-06T14:04:24.845Z,38.7
2022-09-06T14:09:43.047Z,38.2
2022-09-06T14:15:01.785Z,38.1
2022-09-06T14:20:20.539Z,39.1
2022-09-06T14:25:39.024Z,38.8
2022-09-06T14:30:57.451Z,39.3
2022-09-06T14:36:15.909Z,38.5
2022-09-06T14:41:34.102Z,40.2
2022-09-06T14:46:52.866Z,40.1
2022-09-06T14:52:11.347Z,40.2
2022-09-06T14:57:30.090Z,41.4
2022-09-06T15:02:48.358Z,41.5
2022-09-06T15:08:06.843Z,41.3
2022-09-06T15:13:25.396Z,42.2
2022-09-06T15:18:43.561Z,42.1
2022-09-06T15:24:02.026Z,41.2
2022-09-06T15:29:20.495Z,41.1
2022-09-06T15:34:38.961Z,41.8
2022-09-06T15:39:57.670Z,41.6
2022-09-06T15:45:16.468Z,42.1
2022-09-06T15:50:52.143Z,41.2
2022-09-06T15:56:10.615Z,42.2
2022-09-06T16:01:29.101Z,41.5
2022-09-06T16:06:47.658Z,41.7
2022-09-06T16:12:06.418Z,42.5
2022-09-06T16:17:25.186Z,41.5
2022-09-06T16:22:43.959Z,41.6
2022-09-06T16:28:02.722Z,42.5
2022-09-06T16:33:20.925Z,42
2022-09-06T16:38:39.415Z,42.9
2022-09-06T16:43:57.895Z,42.9
2022-09-06T16:49:16.651Z,41.9
2022-09-06T16:54:35.125Z,42.1
2022-09-06T16:59:53.893Z,43.1
2022-09-06T17:05:12.650Z,42.2
2022-09-06T17:10:31.133Z,42.3
2022-09-06T17:15:49.893Z,43.2
2022-09-06T17:21:08.652Z,42.6
2022-09-06T17:26:26.846Z,42.7
2022-09-06T17:31:45.050Z,42.2
2022-09-06T17:37:03.811Z,43.1
2022-09-06T17:42:22.299Z,42.3
2022-09-06T17:47:41.064Z,43.2
2022-09-06T17:52:59.558Z,43.1
2022-09-06T17:58:18.310Z,43.3
2022-09-06T18:03:37.077Z,42.5
2022-09-06T18:08:55.572Z,43.3
2022-09-06T18:14:13.532Z,43.2
2022-09-06T18:19:31.993Z,43.3
2022-09-06T18:24:51.016Z,43.1
2022-09-06T18:30:15.703Z,43.2
2022-09-06T18:35:33.985Z,42.6
2022-09-06T18:40:52.704Z,43.7
2022-09-06T18:46:11.322Z,43.7
2022-09-06T18:51:30.079Z,43.3
2022-09-06T18:56:48.753Z,42.9
2022-09-06T19:02:07.837Z,42.9
2022-09-06T19:07:27.814Z,42.8
2022-09-06T19:12:53.724Z,42.8
2022-09-06T19:18:15.113Z,43.6
2022-09-06T19:23:33.540Z,43.1
2022-09-06T19:28:51.708Z,43
2022-09-06T19:34:10.618Z,43.6
2022-09-06T19:39:37.740Z,43.8
2022-09-06T19:44:56.204Z,43.1
2022-09-06T19:50:14.972Z,44
2022-09-06T19:55:33.740Z,43.6
2022-09-06T20:00:52.296Z,43.1
2022-09-06T20:06:10.763Z,43.3
2022-09-06T20:11:29.524Z,43.5
2022-09-06T20:16:50.770Z,44.2
2022-09-06T20:22:08.651Z,43.6
2022-09-06T20:27:27.139Z,44.8
2022-09-06T20:32:45.914Z,44.2
2022-09-06T20:38:04.387Z,42.4
2022-09-06T20:43:22.590Z,42.8
2022-09-06T21:05:15.227Z,43.7
2022-09-06T21:10:33.692Z,43.2
2022-09-06T21:15:36.561Z,43.5
2022-09-06T21:20:54.773Z,43.5
2022-09-06T21:26:13.239Z,44.2
2022-09-06T21:31:31.864Z,43.8
2022-09-06T21:36:50.412Z,43.4
2022-09-06T21:42:08.601Z,43.4
2022-09-06T21:47:27.357Z,43.8
2022-09-06T21:52:45.845Z,44
2022-09-06T21:58:04.055Z,44
2022-09-06T22:03:22.521Z,43.6
2022-09-06T22:08:41.010Z,44.5
2022-09-06T22:13:59.774Z,44.6
2022-09-06T22:19:18.258Z,44.4
2022-09-06T22:24:37.018Z,44.7
2022-09-06T22:29:55.501Z,44.8
2022-09-06T22:35:13.424Z,45.2
2022-09-06T22:40:32.201Z,44.2
2022-09-06T22:45:52.872Z,44.8
2022-09-06T22:51:11.630Z,44.9
2022-09-06T22:56:30.111Z,45
2022-09-06T23:01:48.599Z,44.2
2022-09-06T23:07:07.072Z,45
2022-09-06T23:12:25.271Z,45.4
2022-09-06T23:17:43.763Z,44.6
2022-09-06T23:23:02.244Z,44.9
2022-09-06T23:28:21.007Z,44.5
2022-09-06T23:33:39.756Z,44.8
2022-09-06T23:38:58.248Z,46.4
2022-09-06T23:44:16.997Z,44.8
2022-09-06T23:49:35.474Z,44.8
2022-09-06T23:54:54.343Z,45.3
